Aérodrome :
LOGIN :

S'inscrire | Disclaimer

   EN    FR    IT 

 










Légende :    VFR   VFR Marginal   IFR   IFR Intensif   IFR Très Intensif
Visi : 
Plafond : 
>= 8 km
>= 3000ft
5 à 8 km
1000 à 3000 ft
1500m à 5 km
500 à 1000 ft
800 à 1500m
200 à 500 ft
< 800m
< 200 ft
Symboles :   Orages  Brouillard  Fortes neiges  Fortes précipitations  Vent > 20 kt
SIGMETs :   Divers  Orages  Givrage  Turbulence  Onde Orograph.  Cendres Volcan.






- Altitude de l'aérodrome : 1299 ft


EDTY - Adolf Würth

DERNIER METAR :
  • 281220Z 04008KT 360V070 9999 SCT048 18/06 Q1028

METARs EXPIRÉS :
  • 281150Z 03009KT 350V090 9999 FEW039 SCT051 18/06 Q1029
  • 281120Z 03007KT 280V080 9999 FEW031 18/08 Q1029
  • 281020Z AUTO 01008KT 340V050 9999 // SCT027/// BKN045/// 17/10 Q1029
  • 280950Z 06006KT 030V090 9999 BKN025 OVC036 16/09 Q1029

TAF TAF EDTY
Valide du 28 à 12h jusqu'au 28 à 21h UTC


281100Z 2812/2821 36010KT 9999 SCT030 BKN045
BECMG 2817/2819 02005KT



MET'MAP, la Météo Aéronautique d'un coup d'oeil ! - Copyright ORBIFLY Décembre 2007 - Disclaimer

ORBIFLY MET'MAP TEAM :

Programmation & Développement : Alexandra Zaïnal
Sur une idée originale de : Baudouin d'Aumeries
Assistance à la programmation : Marc-Olivier Méhu
Soutien technique & logistique : Manuel Goepfert

Contact : metmap@orbifly.com




SOURCES & CREDITS :

   NOAA